createdAt,value
2023-05-18T00:01:42.464Z,17.50
2023-05-18T00:04:24.186Z,17.50
2023-05-18T00:07:11.470Z,17.50
2023-05-18T00:09:53.280Z,17.50
2023-05-18T00:12:40.449Z,17.40
2023-05-18T00:15:20.525Z,17.40
2023-05-18T00:18:07.517Z,17.40
2023-05-18T00:20:48.800Z,17.40
2023-05-18T00:23:39.469Z,17.40
2023-05-18T00:26:19.541Z,17.30
2023-05-18T00:29:06.451Z,17.30
2023-05-18T00:31:46.528Z,17.30
2023-05-18T00:34:33.459Z,17.30
2023-05-18T00:37:20.454Z,17.30
2023-05-18T00:40:01.064Z,17.30
2023-05-18T00:42:47.458Z,17.20
2023-05-18T00:45:28.316Z,17.20
2023-05-18T00:48:15.540Z,17.20
2023-05-18T00:50:55.637Z,17.20
2023-05-18T00:53:44.218Z,17.20
2023-05-18T00:56:26.357Z,17.10
2023-05-18T00:59:16.481Z,17.10
2023-05-18T01:01:57.691Z,17.10
2023-05-18T01:04:44.456Z,17.10
2023-05-18T01:07:33.484Z,17.10
2023-05-18T01:10:13.500Z,17.10
2023-05-18T01:13:02.484Z,17.10
2023-05-18T01:15:48.322Z,17.10
2023-05-18T01:18:49.514Z,17.10
2023-05-18T01:21:57.716Z,17.00
2023-05-18T01:24:55.453Z,17.00
2023-05-18T01:27:46.389Z,17.00
2023-05-18T01:30:26.485Z,17.00
2023-05-18T01:33:18.510Z,17.00
2023-05-18T01:35:59.515Z,17.00
2023-05-18T01:38:47.478Z,17.00
2023-05-18T01:41:36.337Z,16.90
2023-05-18T01:44:58.475Z,16.90
2023-05-18T01:47:41.598Z,16.90
2023-05-18T01:50:44.476Z,16.90
2023-05-18T01:53:44.463Z,16.80
2023-05-18T01:56:39.449Z,16.90
2023-05-18T01:59:27.480Z,16.90
2023-05-18T02:02:15.536Z,16.90
2023-05-18T02:04:56.251Z,16.80
2023-05-18T02:07:43.475Z,16.90
2023-05-18T02:10:30.639Z,16.80
2023-05-18T02:13:13.464Z,16.80
2023-05-18T02:15:53.978Z,16.80
2023-05-18T02:18:40.538Z,16.80
2023-05-18T02:21:22.125Z,16.80
2023-05-18T02:24:08.662Z,16.80
2023-05-18T02:26:55.468Z,16.70
2023-05-18T02:29:42.467Z,16.80
2023-05-18T02:32:29.567Z,16.70
2023-05-18T02:35:16.470Z,16.70
2023-05-18T02:37:58.263Z,16.70
2023-05-18T02:40:44.454Z,16.70
2023-05-18T02:43:31.482Z,16.70
2023-05-18T02:46:13.594Z,16.60
2023-05-18T02:49:00.462Z,16.60
2023-05-18T02:51:40.533Z,16.60
2023-05-18T02:54:27.461Z,16.60
2023-05-18T02:57:15.605Z,16.60
2023-05-18T03:00:05.458Z,16.60
2023-05-18T03:02:48.447Z,16.60
2023-05-18T03:05:35.477Z,16.60
2023-05-18T03:08:27.145Z,16.60
2023-05-18T03:11:07.493Z,16.60
2023-05-18T03:13:55.464Z,16.60
2023-05-18T03:16:45.516Z,16.60
2023-05-18T03:19:32.569Z,16.60
2023-05-18T03:22:12.489Z,16.50
2023-05-18T03:25:01.472Z,16.50
2023-05-18T03:27:48.474Z,16.50
2023-05-18T03:30:35.644Z,16.50
2023-05-18T03:33:15.526Z,16.50
2023-05-18T03:35:55.974Z,16.50
2023-05-18T03:38:42.470Z,16.50
2023-05-18T03:41:29.476Z,16.50
2023-05-18T03:44:16.490Z,16.40
2023-05-18T03:47:03.462Z,16.40
2023-05-18T03:49:43.540Z,16.50
2023-05-18T03:52:30.478Z,16.40
2023-05-18T03:55:13.608Z,16.40
2023-05-18T03:58:00.498Z,16.40
2023-05-18T04:00:40.671Z,16.40
2023-05-18T04:03:27.586Z,16.40
2023-05-18T04:06:07.549Z,16.30
2023-05-18T04:08:54.488Z,16.40
2023-05-18T04:11:34.542Z,16.40
2023-05-18T04:14:21.504Z,16.40
2023-05-18T04:17:11.474Z,16.40
2023-05-18T04:19:58.530Z,16.40
2023-05-18T04:22:38.563Z,16.40
2023-05-18T04:25:28.977Z,16.40
2023-05-18T04:28:09.483Z,16.40
2023-05-18T04:30:56.477Z,16.40
2023-05-18T04:33:36.521Z,16.40
2023-05-18T04:36:26.498Z,16.40
2023-05-18T04:39:15.460Z,16.40
2023-05-18T04:41:58.184Z,16.40
2023-05-18T04:44:45.485Z,16.40
2023-05-18T04:47:26.061Z,16.40
2023-05-18T04:50:13.482Z,16.40
2023-05-18T04:52:57.835Z,16.40
2023-05-18T04:55:44.490Z,16.40
2023-05-18T04:58:31.554Z,16.40
2023-05-18T05:01:12.519Z,16.40
2023-05-18T05:03:53.027Z,16.50
2023-05-18T05:06:39.488Z,16.50
2023-05-18T05:09:19.963Z,16.40
2023-05-18T05:12:06.473Z,16.50
2023-05-18T05:14:46.608Z,16.50
2023-05-18T05:17:34.523Z,16.50
2023-05-18T05:20:21.520Z,16.50
2023-05-18T05:23:01.651Z,16.50
2023-05-18T05:25:51.501Z,16.60
2023-05-18T05:28:33.577Z,16.60
2023-05-18T05:31:20.501Z,16.60
2023-05-18T05:34:07.487Z,16.60
2023-05-18T05:36:54.487Z,16.70
2023-05-18T05:39:41.499Z,16.70
2023-05-18T05:42:25.481Z,16.70
2023-05-18T05:45:12.468Z,16.70
2023-05-18T05:47:56.042Z,16.70
2023-05-18T05:50:44.485Z,16.70
2023-05-18T05:53:24.974Z,16.70
2023-05-18T05:56:11.477Z,16.70
2023-05-18T05:58:59.496Z,16.70
2023-05-18T06:01:46.510Z,16.70
2023-05-18T06:04:33.621Z,16.80
2023-05-18T06:07:13.488Z,16.80
2023-05-18T06:09:54.031Z,16.80
2023-05-18T06:12:40.489Z,16.80
2023-05-18T06:15:21.099Z,16.80
2023-05-18T06:18:07.545Z,16.80
2023-05-18T06:20:54.572Z,16.90
2023-05-18T06:23:34.482Z,17.00
2023-05-18T06:26:25.971Z,17.00
2023-05-18T06:29:21.492Z,17.10
2023-05-18T06:32:20.283Z,17.10
2023-05-18T06:35:08.479Z,17.20
2023-05-18T06:37:48.986Z,17.20
2023-05-18T06:40:35.491Z,17.30
2023-05-18T06:43:16.129Z,17.40
2023-05-18T06:46:38.582Z,17.50
2023-05-18T06:49:32.691Z,17.60
2023-05-18T06:52:14.509Z,17.70
2023-05-18T06:54:55.088Z,17.90
2023-05-18T06:57:41.522Z,18.10
2023-05-18T07:00:21.989Z,18.30
2023-05-18T07:03:09.591Z,18.50
2023-05-18T07:05:56.484Z,18.70
2023-05-18T07:08:47.504Z,18.90
2023-05-18T07:11:29.665Z,19.00
2023-05-18T07:14:16.490Z,19.20
2023-05-18T07:16:56.994Z,19.40
2023-05-18T07:19:43.511Z,19.40
2023-05-18T07:22:23.978Z,19.50
2023-05-18T07:25:10.480Z,19.50
2023-05-18T07:27:57.545Z,19.60
2023-05-18T07:30:37.509Z,19.60
2023-05-18T07:33:24.501Z,19.50
2023-05-18T07:36:11.546Z,19.50
2023-05-18T07:38:54.873Z,19.50
2023-05-18T07:41:41.500Z,19.40
2023-05-18T07:44:28.497Z,19.50
2023-05-18T07:47:15.486Z,19.50
2023-05-18T07:49:56.124Z,19.60
2023-05-18T07:52:42.511Z,19.70
2023-05-18T07:55:36.572Z,19.80
2023-05-18T07:58:23.497Z,20.00
2023-05-18T08:01:10.492Z,20.10
2023-05-18T08:03:57.598Z,20.30
2023-05-18T08:06:37.759Z,20.40
2023-05-18T08:09:24.511Z,20.60
2023-05-18T08:12:04.549Z,20.70
2023-05-18T08:14:51.501Z,20.80
2023-05-18T08:17:38.531Z,20.90
2023-05-18T08:20:25.551Z,20.90
2023-05-18T08:23:05.613Z,21.00
2023-05-18T08:25:52.486Z,21.00
2023-05-18T08:28:39.505Z,21.10
2023-05-18T08:31:20.046Z,21.10
2023-05-18T08:34:06.505Z,21.10
2023-05-18T08:36:47.192Z,21.20
2023-05-18T08:39:33.500Z,21.20
2023-05-18T08:42:45.622Z,21.20
2023-05-18T08:45:42.819Z,21.30
2023-05-18T08:48:29.584Z,21.40
2023-05-18T08:51:12.564Z,21.50
2023-05-18T08:54:00.498Z,21.50
2023-05-18T08:56:54.508Z,21.50
2023-05-18T08:59:47.506Z,21.50
2023-05-18T09:02:27.597Z,21.50
2023-05-18T09:05:16.589Z,21.70
2023-05-18T09:08:01.593Z,21.70
2023-05-18T09:10:48.497Z,21.90
2023-05-18T09:13:28.620Z,22.00
2023-05-18T09:16:15.558Z,22.00
2023-05-18T09:18:55.745Z,22.00
2023-05-18T09:21:42.513Z,21.90
2023-05-18T09:24:24.560Z,21.90
2023-05-18T09:27:12.522Z,22.00
2023-05-18T09:30:00.882Z,22.20
2023-05-18T09:32:48.598Z,22.20
2023-05-18T09:35:31.975Z,22.30
2023-05-18T09:38:21.517Z,22.30
2023-05-18T09:41:02.595Z,22.40
2023-05-18T09:43:50.509Z,22.60
2023-05-18T09:46:30.619Z,22.80
2023-05-18T09:49:18.507Z,22.90
2023-05-18T09:52:01.732Z,23.00
2023-05-18T09:54:48.514Z,23.10
2023-05-18T09:57:28.659Z,23.00
2023-05-18T10:00:17.590Z,22.90
2023-05-18T10:02:57.597Z,22.80
2023-05-18T10:05:46.531Z,22.80
2023-05-18T10:08:26.572Z,22.80
2023-05-18T10:11:14.507Z,22.90
2023-05-18T10:13:59.581Z,23.00
2023-05-18T10:16:50.402Z,23.10
2023-05-18T10:19:30.617Z,23.20
2023-05-18T10:22:18.526Z,23.40
2023-05-18T10:24:59.561Z,23.50
2023-05-18T10:27:48.529Z,23.70
2023-05-18T10:30:29.897Z,23.80
2023-05-18T10:33:28.579Z,23.90
2023-05-18T10:36:10.590Z,23.90
2023-05-18T10:38:58.531Z,24.00
2023-05-18T10:41:41.579Z,24.10
2023-05-18T10:44:30.516Z,24.10
2023-05-18T10:47:12.737Z,24.10
2023-05-18T10:50:00.536Z,24.10
2023-05-18T10:52:42.755Z,24.00
2023-05-18T10:55:29.541Z,24.00
2023-05-18T10:58:26.538Z,24.00
2023-05-18T11:01:23.566Z,24.00
2023-05-18T11:04:13.617Z,24.00
2023-05-18T11:07:01.549Z,24.10
2023-05-18T11:09:43.371Z,24.10
2023-05-18T11:12:30.551Z,24.10
2023-05-18T11:15:11.502Z,24.10
2023-05-18T11:17:58.587Z,24.10
2023-05-18T11:20:39.001Z,24.10
2023-05-18T11:23:27.519Z,24.10
2023-05-18T11:26:22.542Z,24.20
2023-05-18T11:29:11.539Z,24.20
2023-05-18T11:32:01.422Z,24.20
2023-05-18T11:34:43.520Z,24.10
2023-05-18T11:37:39.383Z,24.20
2023-05-18T11:40:47.542Z,24.10
2023-05-18T11:43:35.638Z,24.10
2023-05-18T11:46:24.559Z,24.00
2023-05-18T11:49:14.699Z,23.90
2023-05-18T11:52:08.561Z,23.80
2023-05-18T11:55:05.540Z,23.80
2023-05-18T11:57:53.565Z,23.70
2023-05-18T12:00:40.620Z,23.70
2023-05-18T12:03:21.607Z,23.60
2023-05-18T12:06:10.596Z,23.60
2023-05-18T12:08:51.549Z,23.60
2023-05-18T12:11:39.545Z,23.60
2023-05-18T12:14:21.325Z,23.50
2023-05-18T12:17:08.666Z,23.50
2023-05-18T12:19:50.906Z,23.50
2023-05-18T12:22:37.548Z,23.50
2023-05-18T12:25:17.658Z,23.40
2023-05-18T12:28:05.543Z,23.40
2023-05-18T12:30:45.684Z,23.40
2023-05-18T12:33:32.544Z,23.40
2023-05-18T12:36:17.633Z,23.30
2023-05-18T12:39:04.538Z,23.30
2023-05-18T12:41:44.582Z,23.30
2023-05-18T12:44:31.557Z,23.20
2023-05-18T12:47:19.559Z,23.10
2023-05-18T12:50:03.645Z,23.10
2023-05-18T12:52:50.549Z,23.00
2023-05-18T12:55:38.576Z,23.00
2023-05-18T12:58:33.552Z,22.90
2023-05-18T13:01:21.554Z,22.80
2023-05-18T13:04:03.910Z,22.80
2023-05-18T13:06:50.591Z,22.70
2023-05-18T13:09:30.611Z,22.60
2023-05-18T13:12:18.555Z,22.60
2023-05-18T13:14:59.614Z,22.60
2023-05-18T13:17:54.568Z,22.50
2023-05-18T13:20:51.691Z,22.40
2023-05-18T13:23:38.556Z,22.40
2023-05-18T13:26:19.656Z,22.40
2023-05-18T13:29:06.561Z,22.30
2023-05-18T13:31:46.625Z,22.20
2023-05-18T13:34:33.584Z,22.10
2023-05-18T13:37:14.876Z,22.10
2023-05-18T13:40:01.581Z,22.00
2023-05-18T13:42:41.666Z,22.00
2023-05-18T13:45:28.584Z,21.90
2023-05-18T13:48:10.634Z,21.90
2023-05-18T13:50:57.625Z,21.90
2023-05-18T13:53:40.203Z,21.80
2023-05-18T13:56:27.577Z,21.70
2023-05-18T13:59:07.609Z,21.70
2023-05-18T14:01:54.569Z,21.70
2023-05-18T14:04:34.890Z,21.60
2023-05-18T14:07:21.593Z,21.60
2023-05-18T14:10:01.971Z,21.60
2023-05-18T14:12:51.584Z,21.60
2023-05-18T14:15:31.615Z,21.60
2023-05-18T14:18:19.558Z,21.60
2023-05-18T14:21:08.578Z,21.50
2023-05-18T14:23:55.785Z,21.50
2023-05-18T14:26:36.595Z,21.50
2023-05-18T14:29:23.583Z,21.50
2023-05-18T14:32:03.632Z,21.50
2023-05-18T14:34:50.580Z,21.40
2023-05-18T14:37:30.702Z,21.40
2023-05-18T14:40:17.585Z,21.30
2023-05-18T14:42:57.647Z,21.30
2023-05-18T14:45:48.322Z,21.30
2023-05-18T14:48:33.627Z,21.30
2023-05-18T14:51:20.554Z,21.30
2023-05-18T14:54:07.586Z,21.30
2023-05-18T14:57:01.569Z,21.20
2023-05-18T14:59:49.581Z,21.20
2023-05-18T15:02:29.721Z,21.20
2023-05-18T15:05:16.585Z,21.20
2023-05-18T15:07:56.633Z,21.10
2023-05-18T15:10:43.571Z,21.10
2023-05-18T15:13:23.942Z,21.00
2023-05-18T15:16:10.596Z,21.00
2023-05-18T15:18:57.636Z,21.00
2023-05-18T15:21:38.227Z,21.00
2023-05-18T15:24:24.578Z,21.00
2023-05-18T15:27:05.449Z,21.00
2023-05-18T15:29:53.578Z,20.90
2023-05-18T15:32:34.074Z,20.90
2023-05-18T15:35:22.573Z,20.90
2023-05-18T15:38:03.101Z,20.80
2023-05-18T15:40:53.582Z,20.80
2023-05-18T15:43:42.558Z,20.80
2023-05-18T15:46:29.646Z,20.80
2023-05-18T15:49:16.804Z,20.70
2023-05-18T15:51:56.597Z,20.70
2023-05-18T15:54:37.263Z,20.70
2023-05-18T15:57:23.591Z,20.70
2023-05-18T16:00:10.589Z,20.70
2023-05-18T16:02:50.778Z,20.70
2023-05-18T16:05:37.596Z,20.70
2023-05-18T16:08:17.667Z,20.60
2023-05-18T16:11:04.617Z,20.60
2023-05-18T16:13:44.693Z,20.60
2023-05-18T16:16:32.614Z,20.60
2023-05-18T16:19:12.700Z,20.60
2023-05-18T16:21:59.586Z,20.60
2023-05-18T16:24:46.619Z,20.50
2023-05-18T16:27:27.074Z,20.50
2023-05-18T16:30:13.609Z,20.50
2023-05-18T16:33:00.660Z,20.50
2023-05-18T16:35:41.008Z,20.50
2023-05-18T16:38:27.598Z,20.50
2023-05-18T16:41:08.697Z,20.50
2023-05-18T16:43:55.605Z,20.50
2023-05-18T16:46:35.834Z,20.50
2023-05-18T16:49:22.603Z,20.50
2023-05-18T16:52:03.534Z,20.50
2023-05-18T16:54:51.608Z,20.50
2023-05-18T16:57:33.716Z,20.50
2023-05-18T17:00:20.607Z,20.50
2023-05-18T17:03:03.164Z,20.50
2023-05-18T17:05:50.581Z,20.40
2023-05-18T17:08:30.633Z,20.40
2023-05-18T17:11:17.604Z,20.40
2023-05-18T17:13:59.759Z,20.40
2023-05-18T17:16:47.589Z,20.50
2023-05-18T17:19:27.750Z,20.50
2023-05-18T17:22:17.604Z,20.50
2023-05-18T17:24:57.646Z,20.50
2023-05-18T17:27:44.581Z,20.50
2023-05-18T17:30:31.822Z,20.60
2023-05-18T17:33:12.182Z,20.60
2023-05-18T17:35:58.605Z,20.60
2023-05-18T17:38:46.870Z,20.60
2023-05-18T17:41:28.608Z,20.50
2023-05-18T17:44:20.594Z,20.50
2023-05-18T17:47:07.637Z,20.50
2023-05-18T17:49:48.067Z,20.60
2023-05-18T17:52:34.610Z,20.60
2023-05-18T17:55:21.651Z,20.60
2023-05-18T17:58:08.608Z,20.60
2023-05-18T18:00:55.611Z,20.60
2023-05-18T18:03:37.339Z,20.60
2023-05-18T18:06:28.612Z,20.60
2023-05-18T18:09:09.176Z,20.60
2023-05-18T18:11:55.600Z,20.60
2023-05-18T18:14:36.176Z,20.60
2023-05-18T18:17:22.671Z,20.60
2023-05-18T18:20:09.618Z,20.50
2023-05-18T18:23:03.624Z,20.50
2023-05-18T18:25:44.293Z,20.40
2023-05-18T18:28:30.604Z,20.40
2023-05-18T18:31:19.890Z,20.40
2023-05-18T18:33:59.621Z,20.40
2023-05-18T18:36:40.955Z,20.30
2023-05-18T18:39:27.596Z,20.30
2023-05-18T18:42:16.992Z,20.30
2023-05-18T18:45:02.619Z,20.30
2023-05-18T18:47:43.335Z,20.30
2023-05-18T18:50:30.957Z,20.20
2023-05-18T18:53:17.748Z,20.20
2023-05-18T18:55:57.613Z,20.20
2023-05-18T18:58:44.992Z,20.20
2023-05-18T19:01:24.678Z,20.20
2023-05-18T19:04:13.040Z,20.10
2023-05-18T19:06:52.617Z,20.10
2023-05-18T19:09:41.616Z,20.10
2023-05-18T19:12:21.659Z,20.20
2023-05-18T19:15:08.624Z,20.20
2023-05-18T19:17:59.641Z,20.20
2023-05-18T19:20:46.630Z,20.20
2023-05-18T19:23:27.673Z,20.20
2023-05-18T19:26:15.626Z,20.20
2023-05-18T19:29:02.616Z,20.20
2023-05-18T19:31:43.141Z,20.10
2023-05-18T19:34:29.630Z,20.10
2023-05-18T19:37:10.127Z,20.10
2023-05-18T19:39:56.636Z,20.10
2023-05-18T19:42:43.678Z,20.10
2023-05-18T19:45:23.759Z,20.10
2023-05-18T19:48:11.046Z,20.10
2023-05-18T19:50:50.607Z,20.10
2023-05-18T19:53:31.157Z,20.10
2023-05-18T19:56:17.618Z,20.10
2023-05-18T19:59:04.678Z,20.10
2023-05-18T20:01:44.672Z,20.10
2023-05-18T20:04:33.414Z,20.10
2023-05-18T20:07:13.618Z,20.10
2023-05-18T20:09:54.538Z,20.10
2023-05-18T20:12:41.621Z,20.10
2023-05-18T20:15:22.335Z,20.00
2023-05-18T20:18:08.705Z,20.00
2023-05-18T20:20:49.878Z,20.00
2023-05-18T20:23:37.627Z,20.00
2023-05-18T20:26:18.103Z,20.00
2023-05-18T20:29:04.605Z,19.90
2023-05-18T20:31:52.071Z,19.90
2023-05-18T20:34:31.623Z,19.90
2023-05-18T20:37:13.808Z,19.80
2023-05-18T20:40:03.628Z,19.80
2023-05-18T20:42:54.186Z,19.80
2023-05-18T20:45:36.640Z,19.70
2023-05-18T20:48:28.256Z,19.70
2023-05-18T20:51:08.631Z,19.60
2023-05-18T20:53:49.106Z,19.60
2023-05-18T20:56:36.615Z,19.60
2023-05-18T20:59:23.716Z,19.60
2023-05-18T21:02:03.648Z,19.50
2023-05-18T21:04:44.108Z,19.50
2023-05-18T21:07:30.619Z,19.50
2023-05-18T21:10:11.604Z,19.50
2023-05-18T21:12:58.630Z,19.40
2023-05-18T21:15:39.177Z,19.40
2023-05-18T21:18:28.173Z,19.40
2023-05-18T21:21:08.178Z,19.30
2023-05-18T21:23:54.643Z,19.30
2023-05-18T21:26:35.466Z,19.30
2023-05-18T21:29:22.630Z,19.20
2023-05-18T21:32:09.920Z,19.20
2023-05-18T21:34:49.624Z,19.20
2023-05-18T21:37:36.703Z,19.20
2023-05-18T21:40:16.632Z,19.20
2023-05-18T21:43:03.745Z,19.10
2023-05-18T21:45:43.664Z,19.10
2023-05-18T21:48:23.627Z,19.10
2023-05-18T21:51:04.908Z,19.10
2023-05-18T21:53:51.634Z,19.00
2023-05-18T21:56:34.588Z,19.00
2023-05-18T21:59:21.632Z,19.00
2023-05-18T22:02:02.186Z,18.90
2023-05-18T22:04:48.640Z,18.90
2023-05-18T22:07:35.690Z,18.90
2023-05-18T22:10:15.653Z,18.80
2023-05-18T22:12:56.141Z,18.80
2023-05-18T22:15:43.648Z,18.70
2023-05-18T22:18:26.875Z,18.80
2023-05-18T22:21:13.631Z,18.70
2023-05-18T22:24:00.797Z,18.70
2023-05-18T22:26:40.634Z,18.70
2023-05-18T22:29:21.202Z,18.60
2023-05-18T22:32:07.676Z,18.60
2023-05-18T22:34:48.179Z,18.60
2023-05-18T22:37:34.635Z,18.60
2023-05-18T22:40:15.147Z,18.60
2023-05-18T22:43:01.635Z,18.60
2023-05-18T22:45:42.127Z,18.60
2023-05-18T22:48:28.664Z,18.60
2023-05-18T22:51:15.992Z,18.50
2023-05-18T22:53:55.630Z,18.50
2023-05-18T22:56:42.657Z,18.50
2023-05-18T22:59:36.634Z,18.50
2023-05-18T23:02:17.180Z,18.50
2023-05-18T23:05:03.711Z,18.40
2023-05-18T23:07:44.167Z,18.40
2023-05-18T23:10:32.879Z,18.40
2023-05-18T23:13:22.636Z,18.40
2023-05-18T23:16:10.739Z,18.40
2023-05-18T23:18:53.669Z,18.30
2023-05-18T23:21:40.646Z,18.30
2023-05-18T23:24:28.641Z,18.30
2023-05-18T23:27:15.659Z,18.30
2023-05-18T23:29:56.161Z,18.30
2023-05-18T23:32:42.724Z,18.20
2023-05-18T23:35:23.430Z,18.20
2023-05-18T23:38:16.646Z,18.20
2023-05-18T23:40:57.362Z,18.20
2023-05-18T23:43:43.646Z,18.20
2023-05-18T23:46:24.904Z,18.20
2023-05-18T23:49:11.668Z,18.10
2023-05-18T23:51:52.585Z,18.10
2023-05-18T23:54:39.667Z,18.10
2023-05-18T23:57:33.622Z,18.00
